Wetterdaten: Woche 08.04.13 - 14.04.13 (KW15)
Datum Zeit Temp. A. Feuchte A. Luftdruck Regen Wind Richtung Taupunkt Windchill Windben
08.04.2013 00:00 3,1 C 75 % 1016,6 hPa 0,0 l/m 4,3 km/h N -0,9 C 3,1 C 10,9 km/h
08.04.2013 01:00 2,7 C 76 % 1016,0 hPa 0,0 l/m 2,2 km/h N -1,1 C 2,7 C 8,4 km/h
08.04.2013 02:00 1,8 C 78 % 1015,5 hPa 0,0 l/m 1,2 km/h N -1,7 C 1,8 C 6,8 km/h
08.04.2013 03:00 1,3 C 80 % 1015,1 hPa 0,0 l/m 3,9 km/h N -1,8 C 1,3 C 9,3 km/h
08.04.2013 04:00 1,2 C 80 % 1014,8 hPa 0,0 l/m 3,7 km/h N -1,9 C 1,2 C 9,3 km/h
08.04.2013 05:00 0,8 C 80 % 1014,4 hPa 0,0 l/m 1,3 km/h N -2,3 C 0,8 C 4,4 km/h
08.04.2013 06:00 -0,5 C 81 % 1013,9 hPa 0,0 l/m 0,2 km/h N -3,3 C -0,5 C 3,2 km/h
08.04.2013 07:00 0,3 C 83 % 1013,6 hPa 0,0 l/m 1,8 km/h N -2,3 C 0,3 C 6,8 km/h
08.04.2013 08:00 2,8 C 72 % 1013,1 hPa 0,0 l/m 2,8 km/h N -1,7 C 2,8 C 10,1 km/h
08.04.2013 09:00 5,1 C 62 % 1012,6 hPa 0,0 l/m 1,7 km/h N -1,6 C 5,1 C 7,6 km/h
08.04.2013 10:00 7,1 C 53 % 1011,9 hPa 0,0 l/m 1,5 km/h N -1,8 C 7,1 C 8,4 km/h
08.04.2013 11:00 7,0 C 51 % 1011,5 hPa 0,0 l/m 2,2 km/h N -2,5 C 7,0 C 6,8 km/h
08.04.2013 12:00 7,6 C 53 % 1011,0 hPa 0,0 l/m 2,6 km/h N -1,5 C 7,6 C 11,7 km/h
08.04.2013 13:00 8,0 C 55 % 1010,5 hPa 0,0 l/m 3,2 km/h N -0,5 C 8,0 C 12,1 km/h
08.04.2013 14:00 9,2 C 50 % 1009,8 hPa 0,0 l/m 4,1 km/h N -0,7 C 9,2 C 15,7 km/h
08.04.2013 15:00 9,8 C 52 % 1008,7 hPa 0,0 l/m 3,7 km/h N 0,4 C 9,8 C 13,7 km/h
08.04.2013 16:00 9,8 C 50 % 1007,6 hPa 0,0 l/m 6,5 km/h N -0,1 C 9,0 C 20,5 km/h
08.04.2013 17:00 9,4 C 52 % 1006,9 hPa 0,0 l/m 7,7 km/h N -0,0 C 8,5 C 23,7 km/h
08.04.2013 18:00 8,9 C 54 % 1006,6 hPa 0,0 l/m 5,9 km/h N -0,0 C 8,8 C 19,7 km/h
08.04.2013 19:00 8,2 C 54 % 1006,5 hPa 0,0 l/m 8,1 km/h N -0,6 C 6,8 C 21,3 km/h
08.04.2013 20:00 7,3 C 56 % 1006,4 hPa 0,0 l/m 7,1 km/h N -1,0 C 6,3 C 20,1 km/h
08.04.2013 21:00 6,6 C 63 % 1006,2 hPa 0,0 l/m 3,7 km/h N 0,1 C 6,6 C 13,3 km/h
08.04.2013 22:00 6,5 C 64 % 1006,0 hPa 0,0 l/m 6,4 km/h N 0,2 C 6,1 C 18,1 km/h
08.04.2013 23:00 6,0 C 67 % 1005,8 hPa 0,0 l/m 4,6 km/h N 0,4 C 6,0 C 14,1 km/h
09.04.2013 00:00 5,5 C 70 % 1005,4 hPa 0,0 l/m 4,1 km/h N 0,4 C 5,5 C 12,5 km/h
09.04.2013 01:00 5,2 C 70 % 1005,1 hPa 0,0 l/m 2,1 km/h N 0,2 C 5,2 C 8,9 km/h
09.04.2013 02:00 4,6 C 71 % 1004,9 hPa 0,0 l/m 0,4 km/h N -0,3 C 4,6 C 3,2 km/h
09.04.2013 03:00 2,4 C 73 % 1005,0 hPa 0,0 l/m 0,0 km/h N -1,9 C 2,4 C 0,0 km/h
09.04.2013 04:00 0,8 C 80 % 1005,2 hPa 0,0 l/m 0,0 km/h N -2,2 C 0,8 C 0,0 km/h
09.04.2013 05:00 0,1 C 83 % 1005,7 hPa 0,0 l/m 0,1 km/h N -2,4 C 0,1 C 1,2 km/h
09.04.2013 06:00 -0,4 C 84 % 1006,1 hPa 0,0 l/m 0,1 km/h N -2,8 C -0,4 C 1,2 km/h
09.04.2013 07:00 0,2 C 85 % 1006,5 hPa 0,0 l/m 0,4 km/h N -2,0 C 0,2 C 4,4 km/h
09.04.2013 08:00 3,7 C 83 % 1006,8 hPa 0,0 l/m 0,1 km/h N 1,0 C 3,7 C 1,6 km/h
09.04.2013 09:00 7,6 C 69 % 1006,9 hPa 0,0 l/m 0,9 km/h N 2,3 C 7,6 C 6,0 km/h
09.04.2013 10:00 9,8 C 61 % 1007,2 hPa 0,0 l/m 1,8 km/h N 2,6 C 9,8 C 7,6 km/h
09.04.2013 11:00 10,8 C 58 % 1007,0 hPa 0,0 l/m 2,9 km/h N 2,7 C 10,8 C 11,7 km/h
09.04.2013 12:00 12,2 C 56 % 1006,7 hPa 0,0 l/m 2,0 km/h N 3,7 C 12,2 C 8,0 km/h
09.04.2013 13:00 12,6 C 52 % 1006,3 hPa 0,0 l/m 4,3 km/h N 2,9 C 12,6 C 14,5 km/h
09.04.2013 14:00 13,4 C 52 % 1006,0 hPa 0,0 l/m 2,5 km/h N 3,7 C 13,4 C 10,1 km/h
09.04.2013 15:00 14,0 C 50 % 1005,6 hPa 0,0 l/m 2,1 km/h N 3,6 C 14,0 C 8,8 km/h
09.04.2013 16:00 13,6 C 50 % 1005,1 hPa 0,0 l/m 5,4 km/h N 3,4 C 13,5 C 16,9 km/h
09.04.2013 17:00 13,6 C 49 % 1004,9 hPa 0,0 l/m 6,9 km/h N 3,1 C 12,9 C 19,7 km/h
09.04.2013 18:00 13,0 C 51 % 1004,7 hPa 0,0 l/m 7,1 km/h N 3,2 C 12,3 C 22,5 km/h
09.04.2013 19:00 12,1 C 55 % 1004,7 hPa 0,0 l/m 4,1 km/h N 3,3 C 12,1 C 15,3 km/h
09.04.2013 20:00 10,7 C 61 % 1004,6 hPa 0,0 l/m 1,5 km/h N 3,5 C 10,7 C 7,2 km/h
09.04.2013 21:00 10,0 C 65 % 1004,8 hPa 0,0 l/m 1,9 km/h N 3,6 C 10,0 C 6,9 km/h
09.04.2013 22:00 9,3 C 70 % 1004,8 hPa 0,0 l/m 0,5 km/h N 4,2 C 9,3 C 5,2 km/h
09.04.2013 23:00 9,1 C 74 % 1005,7 hPa 0,0 l/m 2,5 km/h N 4,8 C 9,1 C 8,8 km/h
10.04.2013 00:00 9,5 C 71 % 1006,1 hPa 0,0 l/m 4,1 km/h N 4,5 C 9,5 C 13,3 km/h
10.04.2013 01:00 8,7 C 74 % 1006,2 hPa 0,0 l/m 0,1 km/h N 4,4 C 8,7 C 1,2 km/h
10.04.2013 02:00 7,4 C 76 % 1006,1 hPa 0,0 l/m 0,1 km/h N 3,5 C 7,4 C 1,6 km/h
10.04.2013 03:00 5,7 C 79 % 1006,2 hPa 0,0 l/m 0,0 km/h N 2,3 C 5,7 C 0,0 km/h
10.04.2013 04:00 3,8 C 82 % 1006,8 hPa 0,0 l/m 0,1 km/h N 1,0 C 3,8 C 2,4 km/h
10.04.2013 05:00 2,7 C 84 % 1007,0 hPa 0,0 l/m 0,0 km/h N 0,3 C 2,7 C 0,0 km/h
10.04.2013 06:00 2,1 C 85 % 1007,2 hPa 0,0 l/m 0,0 km/h N -0,1 C 2,1 C 0,0 km/h
10.04.2013 07:00 3,5 C 83 % 1007,5 hPa 0,0 l/m 0,0 km/h N 0,8 C 3,5 C 0,4 km/h
10.04.2013 08:00 5,5 C 81 % 1008,2 hPa 0,0 l/m 0,4 km/h N 2,6 C 5,5 C 2,0 km/h
10.04.2013 09:00 7,4 C 84 % 1009,0 hPa 0,0 l/m 2,2 km/h N 4,8 C 7,4 C 8,4 km/h
10.04.2013 10:00 8,9 C 76 % 1009,1 hPa 0,0 l/m 8,1 km/h N 4,8 C 7,2 C 22,5 km/h
10.04.2013 11:00 11,0 C 63 % 1008,8 hPa 0,0 l/m 14,6 km/h N 4,2 C 6,6 C 41,9 km/h
10.04.2013 12:00 12,8 C 56 % 1008,7 hPa 0,3 l/m 20,3 km/h N 4,2 C 7,0 C 42,7 km/h
10.04.2013 13:00 12,9 C 53 % 1008,7 hPa 0,0 l/m 22,7 km/h N 3,6 C 6,3 C 43,0 km/h
10.04.2013 14:00 13,6 C 52 % 1009,1 hPa 0,0 l/m 16,9 km/h N 4,0 C 8,9 C 41,0 km/h
10.04.2013 15:00 14,1 C 49 % 1009,3 hPa 0,0 l/m 15,7 km/h N 3,6 C 9,9 C 33,8 km/h
10.04.2013 16:00 13,7 C 51 % 1009,7 hPa 0,0 l/m 15,5 km/h N 3,7 C 9,5 C 33,8 km/h
10.04.2013 17:00 13,4 C 50 % 1009,9 hPa 0,0 l/m 16,4 km/h N 3,3 C 8,8 C 37,4 km/h
10.04.2013 18:00 13,1 C 52 % 1010,3 hPa 0,0 l/m 9,2 km/h N 3,4 C 11,7 C 23,7 km/h
10.04.2013 19:00 12,3 C 53 % 1010,9 hPa 0,0 l/m 3,5 km/h N 3,0 C 12,2 C 12,9 km/h
10.04.2013 20:00 11,1 C 57 % 1011,6 hPa 0,0 l/m 1,9 km/h N 2,9 C 11,1 C 6,4 km/h
10.04.2013 21:00 10,1 C 60 % 1012,1 hPa 0,0 l/m 0,5 km/h N 2,7 C 10,1 C 2,4 km/h
10.04.2013 22:00 7,4 C 68 % 1012,3 hPa 0,0 l/m 0,1 km/h N 1,9 C 7,4 C 1,6 km/h
10.04.2013 23:00 6,1 C 74 % 1012,7 hPa 0,0 l/m 0,9 km/h N 1,9 C 6,1 C 3,6 km/h
11.04.2013 00:00 5,5 C 75 % 1012,8 hPa 0,0 l/m 0,1 km/h N 1,5 C 5,5 C 2,4 km/h
11.04.2013 01:00 4,3 C 79 % 1012,8 hPa 0,0 l/m 0,4 km/h N 0,9 C 4,3 C 3,6 km/h
11.04.2013 02:00 4,6 C 79 % 1012,5 hPa 0,0 l/m 1,2 km/h N 1,3 C 4,6 C 3,6 km/h
11.04.2013 03:00 4,2 C 79 % 1012,4 hPa 0,0 l/m 0,5 km/h N 0,9 C 4,2 C 3,6 km/h
11.04.2013 04:00 3,2 C 79 % 1012,0 hPa 0,0 l/m 0,0 km/h N 0,0 C 3,2 C 0,5 km/h
11.04.2013 05:00 2,8 C 82 % 1011,9 hPa 0,0 l/m 0,2 km/h N -0,0 C 2,8 C 2,4 km/h
11.04.2013 06:00 3,5 C 82 % 1011,4 hPa 0,0 l/m 0,0 km/h N 0,7 C 3,5 C 1,2 km/h
11.04.2013 07:00 3,7 C 83 % 1011,2 hPa 0,0 l/m 0,0 km/h N 1,1 C 3,7 C 0,4 km/h
11.04.2013 08:00 5,5 C 81 % 1011,1 hPa 0,0 l/m 0,1 km/h N 2,5 C 5,5 C 1,2 km/h
11.04.2013 09:00 10,6 C 66 % 1010,5 hPa 0,0 l/m 3,0 km/h N 4,4 C 10,6 C 9,3 km/h
11.04.2013 10:00 14,4 C 56 % 1009,7 hPa 0,0 l/m 5,6 km/h N 5,6 C 14,2 C 14,9 km/h
11.04.2013 11:00 16,2 C 49 % 1008,8 hPa 0,0 l/m 6,6 km/h N 5,5 C 16,0 C 18,1 km/h
11.04.2013 12:00 18,5 C 39 % 1008,2 hPa 0,0 l/m 8,7 km/h N 4,2 C 17,6 C 24,1 km/h
11.04.2013 13:00 19,7 C 38 % 1007,5 hPa 0,0 l/m 7,0 km/h N 4,9 C 19,3 C 18,1 km/h
11.04.2013 14:00 19,1 C 40 % 1007,7 hPa 0,0 l/m 6,9 km/h N 5,2 C 18,8 C 18,1 km/h
11.04.2013 15:00 18,4 C 42 % 1007,8 hPa 0,0 l/m 7,3 km/h N 5,1 C 17,7 C 18,1 km/h
11.04.2013 16:00 17,8 C 47 % 1007,9 hPa 0,0 l/m 10,0 km/h N 6,2 C 16,2 C 24,1 km/h
11.04.2013 17:00 17,6 C 50 % 1007,7 hPa 0,0 l/m 6,8 km/h N 6,9 C 16,9 C 17,7 km/h
11.04.2013 18:00 17,9 C 48 % 1007,4 hPa 0,0 l/m 2,6 km/h N 6,7 C 17,9 C 9,3 km/h
11.04.2013 19:00 16,5 C 52 % 1007,2 hPa 0,0 l/m 0,0 km/h N 6,6 C 16,5 C 0,4 km/h
11.04.2013 20:00 14,1 C 60 % 1007,2 hPa 0,0 l/m 0,3 km/h N 6,4 C 14,1 C 2,4 km/h
11.04.2013 21:00 13,8 C 60 % 1006,7 hPa 0,0 l/m 1,3 km/h N 6,1 C 13,8 C 6,0 km/h
11.04.2013 22:00 13,2 C 62 % 1005,7 hPa 0,0 l/m 1,5 km/h N 6,0 C 13,2 C 6,8 km/h
11.04.2013 23:00 13,2 C 62 % 1004,9 hPa 0,0 l/m 1,3 km/h N 6,1 C 13,2 C 6,4 km/h
12.04.2013 00:00 12,9 C 63 % 1003,8 hPa 0,0 l/m 2,1 km/h N 6,1 C 12,9 C 7,3 km/h
12.04.2013 01:00 12,6 C 64 % 1002,9 hPa 0,0 l/m 1,1 km/h N 5,9 C 12,6 C 6,1 km/h
12.04.2013 02:00 10,3 C 71 % 1002,0 hPa 0,0 l/m 0,0 km/h N 5,2 C 10,3 C 0,8 km/h
12.04.2013 03:00 8,3 C 78 % 1001,2 hPa 0,0 l/m 0,1 km/h N 4,6 C 8,3 C 2,0 km/h
12.04.2013 04:00 7,7 C 82 % 1000,9 hPa 0,0 l/m 0,1 km/h N 4,8 C 7,7 C 2,4 km/h
12.04.2013 05:00 8,0 C 83 % 1000,9 hPa 0,0 l/m 0,3 km/h N 5,2 C 8,0 C 2,0 km/h
12.04.2013 06:00 7,3 C 82 % 1001,3 hPa 0,0 l/m 0,1 km/h N 4,4 C 7,3 C 0,8 km/h
12.04.2013 07:00 7,4 C 84 % 1002,2 hPa 0,0 l/m 0,1 km/h N 4,9 C 7,4 C 0,8 km/h
12.04.2013 08:00 9,2 C 83 % 1003,3 hPa 0,0 l/m 0,6 km/h N 6,4 C 9,2 C 4,8 km/h
12.04.2013 09:00 12,1 C 73 % 1004,4 hPa 0,0 l/m 5,4 km/h N 7,3 C 11,3 C 19,3 km/h
12.04.2013 10:00 14,9 C 63 % 1004,9 hPa 0,0 l/m 14,8 km/h N 7,9 C 11,2 C 34,2 km/h
12.04.2013 11:00 15,4 C 59 % 1005,3 hPa 0,0 l/m 14,6 km/h N 7,5 C 11,9 C 33,0 km/h
12.04.2013 12:00 15,2 C 58 % 1006,4 hPa 0,0 l/m 13,7 km/h N 7,0 C 12,1 C 32,6 km/h
12.04.2013 13:00 15,6 C 54 % 1006,7 hPa 0,0 l/m 14,9 km/h N 6,4 C 12,0 C 33,8 km/h
12.04.2013 14:00 15,6 C 52 % 1006,7 hPa 0,0 l/m 11,2 km/h N 5,7 C 13,3 C 30,2 km/h
12.04.2013 15:00 15,1 C 51 % 1007,1 hPa 0,0 l/m 9,7 km/h N 4,9 C 13,3 C 27,3 km/h
12.04.2013 16:00 14,8 C 51 % 1007,6 hPa 0,0 l/m 11,0 km/h N 4,8 C 12,5 C 29,8 km/h
12.04.2013 17:00 13,7 C 58 % 1008,7 hPa 0,0 l/m 11,1 km/h N 5,7 C 11,2 C 27,3 km/h
12.04.2013 18:00 10,8 C 75 % 1009,8 hPa 0,8 l/m 7,7 km/h N 6,5 C 9,6 C 20,5 km/h
12.04.2013 19:00 10,0 C 79 % 1009,4 hPa 0,0 l/m 0,4 km/h N 6,5 C 10,0 C 4,0 km/h
12.04.2013 20:00 9,2 C 81 % 1010,0 hPa 0,0 l/m 0,0 km/h N 6,1 C 9,2 C 0,8 km/h
12.04.2013 21:00 8,1 C 83 % 1010,5 hPa 0,0 l/m 0,1 km/h N 5,4 C 8,1 C 0,8 km/h
12.04.2013 22:00 6,9 C 84 % 1011,0 hPa 0,0 l/m 0,1 km/h N 4,4 C 6,9 C 1,6 km/h
12.04.2013 23:00 6,0 C 84 % 1011,4 hPa 0,0 l/m 0,0 km/h N 3,5 C 6,0 C 0,4 km/h
13.04.2013 00:00 5,0 C 84 % 1011,5 hPa 0,0 l/m 0,0 km/h N 2,6 C 5,0 C 0,0 km/h
13.04.2013 01:00 4,9 C 83 % 1011,9 hPa 0,0 l/m 0,0 km/h N 2,3 C 4,9 C 0,0 km/h
13.04.2013 02:00 4,5 C 83 % 1012,5 hPa 0,0 l/m 0,0 km/h N 1,9 C 4,5 C 0,4 km/h
13.04.2013 03:00 7,4 C 77 % 1012,7 hPa 0,0 l/m 6,7 km/h N 3,6 C 5,8 C 20,9 km/h
13.04.2013 04:00 11,3 C 62 % 1012,8 hPa 0,0 l/m 13,6 km/h N 4,2 C 7,2 C 34,6 km/h
13.04.2013 05:00 11,2 C 61 % 1013,2 hPa 0,0 l/m 18,4 km/h N 3,9 C 5,4 C 40,6 km/h
13.04.2013 06:00 10,9 C 62 % 1014,1 hPa 0,3 l/m 19,2 km/h N 3,8 C 4,7 C 42,2 km/h
13.04.2013 07:00 11,1 C 61 % 1014,9 hPa 0,0 l/m 21,4 km/h N 3,9 C 4,4 C 43,9 km/h
13.04.2013 08:00 11,4 C 60 % 1016,2 hPa 0,0 l/m 19,0 km/h N 4,0 C 5,5 C 39,0 km/h
13.04.2013 09:00 11,8 C 59 % 1016,8 hPa 0,0 l/m 17,0 km/h N 4,0 C 6,6 C 37,8 km/h
13.04.2013 10:00 12,6 C 58 % 1017,6 hPa 0,0 l/m 9,2 km/h N 4,4 C 11,0 C 23,3 km/h
13.04.2013 11:00 14,6 C 52 % 1018,1 hPa 0,0 l/m 12,5 km/h N 4,9 C 11,7 C 31,8 km/h
13.04.2013 12:00 15,8 C 48 % 1018,5 hPa 0,0 l/m 12,9 km/h N 4,8 C 12,9 C 30,2 km/h
13.04.2013 13:00 15,9 C 48 % 1019,1 hPa 0,0 l/m 14,1 km/h N 4,7 C 12,6 C 34,6 km/h
13.04.2013 14:00 16,3 C 45 % 1019,2 hPa 0,0 l/m 15,7 km/h N 4,2 C 12,5 C 35,8 km/h
13.04.2013 15:00 16,4 C 44 % 1019,0 hPa 0,0 l/m 16,1 km/h N 4,2 C 12,6 C 34,2 km/h
13.04.2013 16:00 16,2 C 43 % 1019,4 hPa 0,0 l/m 14,6 km/h N 3,4 C 12,8 C 30,2 km/h
13.04.2013 17:00 16,5 C 39 % 1019,6 hPa 0,0 l/m 14,3 km/h N 2,4 C 13,2 C 31,0 km/h
13.04.2013 18:00 16,2 C 38 % 1019,9 hPa 0,0 l/m 11,9 km/h N 2,0 C 13,7 C 26,5 km/h
13.04.2013 19:00 15,1 C 43 % 1020,6 hPa 0,0 l/m 8,3 km/h N 2,4 C 13,9 C 22,1 km/h
13.04.2013 20:00 13,9 C 47 % 1021,8 hPa 0,0 l/m 1,6 km/h N 2,7 C 13,9 C 6,8 km/h
13.04.2013 21:00 13,1 C 49 % 1022,6 hPa 0,0 l/m 3,4 km/h N 2,7 C 13,1 C 10,9 km/h
13.04.2013 22:00 12,8 C 51 % 1023,3 hPa 0,0 l/m 3,2 km/h N 2,8 C 12,8 C 9,3 km/h
13.04.2013 23:00 11,6 C 54 % 1024,1 hPa 0,0 l/m 1,3 km/h N 2,5 C 11,6 C 6,4 km/h
14.04.2013 00:00 10,8 C 60 % 1024,7 hPa 0,0 l/m 3,9 km/h N 3,3 C 10,8 C 12,9 km/h
14.04.2013 01:00 11,2 C 59 % 1025,1 hPa 0,0 l/m 4,1 km/h N 3,5 C 11,2 C 12,9 km/h
14.04.2013 02:00 11,4 C 59 % 1025,3 hPa 0,0 l/m 4,2 km/h N 3,7 C 11,4 C 13,7 km/h
14.04.2013 03:00 11,2 C 60 % 1025,5 hPa 0,0 l/m 2,8 km/h N 3,7 C 11,2 C 7,7 km/h
14.04.2013 04:00 9,2 C 64 % 1025,9 hPa 0,0 l/m 0,3 km/h N 2,7 C 9,2 C 2,0 km/h
14.04.2013 05:00 7,9 C 71 % 1026,4 hPa 0,0 l/m 1,4 km/h N 2,9 C 7,9 C 6,9 km/h
14.04.2013 06:00 8,4 C 69 % 1027,0 hPa 0,0 l/m 0,7 km/h N 3,1 C 8,4 C 4,4 km/h
14.04.2013 07:00 8,4 C 72 % 1027,5 hPa 0,0 l/m 1,3 km/h N 3,7 C 8,4 C 5,6 km/h
14.04.2013 08:00 11,9 C 64 % 1027,7 hPa 0,0 l/m 1,0 km/h N 5,2 C 11,9 C 4,8 km/h
14.04.2013 09:00 15,2 C 52 % 1027,6 hPa 0,0 l/m 2,0 km/h N 5,2 C 15,2 C 10,9 km/h
14.04.2013 10:00 15,8 C 47 % 1027,6 hPa 0,0 l/m 6,0 km/h N 4,3 C 15,4 C 14,1 km/h
14.04.2013 11:00 16,5 C 40 % 1027,7 hPa 0,0 l/m 9,3 km/h N 2,6 C 15,0 C 22,9 km/h
14.04.2013 12:00 17,0 C 40 % 1027,6 hPa 0,0 l/m 7,4 km/h N 3,3 C 16,5 C 19,7 km/h
14.04.2013 13:00 17,1 C 41 % 1027,2 hPa 0,0 l/m 7,0 km/h N 3,7 C 16,8 C 18,9 km/h
14.04.2013 14:00 17,2 C 43 % 1026,8 hPa 0,0 l/m 6,8 km/h N 4,4 C 17,0 C 18,9 km/h
14.04.2013 15:00 17,8 C 41 % 1026,4 hPa 0,0 l/m 6,0 km/h N 4,3 C 17,8 C 17,3 km/h
14.04.2013 16:00 17,6 C 41 % 1026,3 hPa 0,0 l/m 4,8 km/h N 4,2 C 17,6 C 15,7 km/h
14.04.2013 17:00 18,0 C 41 % 1026,1 hPa 0,0 l/m 4,5 km/h N 4,6 C 18,0 C 12,1 km/h
14.04.2013 18:00 17,8 C 42 % 1026,0 hPa 0,0 l/m 3,3 km/h N 4,5 C 17,8 C 9,3 km/h
14.04.2013 19:00 16,8 C 44 % 1026,2 hPa 0,0 l/m 1,1 km/h N 4,4 C 16,8 C 6,4 km/h
14.04.2013 20:00 14,8 C 49 % 1026,5 hPa 0,0 l/m 0,1 km/h N 4,1 C 14,8 C 2,4 km/h
14.04.2013 21:00 11,5 C 59 % 1026,9 hPa 0,0 l/m 0,0 km/h N 3,7 C 11,5 C 0,4 km/h
14.04.2013 22:00 9,2 C 67 % 1027,1 hPa 0,0 l/m 0,0 km/h N 3,3 C 9,2 C 0,0 km/h
14.04.2013 23:00 8,2 C 71 % 1027,1 hPa 0,0 l/m 0,1 km/h N 3,2 C 8,2 C 1,6 km/h
Min-Datum _ 08.04.13 11.04.13 12.04.13 - 08.04.13 - 08.04.13 08.04.13 08.04.13
_ Min-Zeit 06:45 13:00 05:15 - 05:30 - 06:45 06:45 05:30
Minimum _ -0,8 C 36 % 1000,6 hPa - 0,0 km/h - -3,5 C -0,8 C 0,0 km/h
Max-Datum _ 11.04.13 09.04.13 14.04.13 12.04.13 10.04.13 - 12.04.13 11.04.13 10.04.13
_ Max-Zeit 13:45 06:45 08:15 18:15 12:45 - 10:15 13:30 12:45
Maximum _ 20,1 C 85 % 1027,8 hPa 0,8 l/m 26,7 km/h
N
- 7,9 C 20,0 C 51,5 km/h
N
Durchschnitt _ 10,1 C 63 % 1012,1 hPa #1,3 l/m 4,9 km/h N 2,9 C 9,3 C 13,4 km/h